sensor_id;sensor_type;location;lat;lon;timestamp;temperature;humidity
28546;DHT22;15749;49.606;8.738;2022-09-09T00:00:53;21.40;99.90
28546;DHT22;15749;49.606;8.738;2022-09-09T00:03:46;21.40;99.90
28546;DHT22;15749;49.606;8.738;2022-09-09T00:06:43;21.40;99.90
28546;DHT22;15749;49.606;8.738;2022-09-09T00:09:39;21.40;99.90
28546;DHT22;15749;49.606;8.738;2022-09-09T00:12:36;21.40;99.90
28546;DHT22;15749;49.606;8.738;2022-09-09T00:15:31;21.40;99.90
28546;DHT22;15749;49.606;8.738;2022-09-09T00:18:28;21.40;99.90
28546;DHT22;15749;49.606;8.738;2022-09-09T00:21:34;21.40;99.90
28546;DHT22;15749;49.606;8.738;2022-09-09T00:24:29;21.40;99.90
28546;DHT22;15749;49.606;8.738;2022-09-09T00:27:26;21.40;99.90
28546;DHT22;15749;49.606;8.738;2022-09-09T00:30:22;21.40;99.90
28546;DHT22;15749;49.606;8.738;2022-09-09T00:33:12;21.40;99.90
28546;DHT22;15749;49.606;8.738;2022-09-09T00:36:07;21.40;99.90
28546;DHT22;15749;49.606;8.738;2022-09-09T00:39:00;21.40;99.90
28546;DHT22;15749;49.606;8.738;2022-09-09T00:42:05;21.40;99.90
28546;DHT22;15749;49.606;8.738;2022-09-09T00:48:11;21.40;99.90
28546;DHT22;15749;49.606;8.738;2022-09-09T00:51:05;21.40;99.90
28546;DHT22;15749;49.606;8.738;2022-09-09T00:54:17;21.30;99.90
28546;DHT22;15749;49.606;8.738;2022-09-09T00:57:21;21.30;99.90
28546;DHT22;15749;49.606;8.738;2022-09-09T01:00:20;21.40;99.90
28546;DHT22;15749;49.606;8.738;2022-09-09T01:03:22;21.40;99.90
28546;DHT22;15749;49.606;8.738;2022-09-09T01:06:24;21.30;99.90
28546;DHT22;15749;49.606;8.738;2022-09-09T01:09:22;21.40;99.90
28546;DHT22;15749;49.606;8.738;2022-09-09T01:12:15;21.30;99.90
28546;DHT22;15749;49.606;8.738;2022-09-09T01:15:11;21.40;99.90
28546;DHT22;15749;49.606;8.738;2022-09-09T01:18:08;21.30;99.90
28546;DHT22;15749;49.606;8.738;2022-09-09T01:21:06;21.40;99.90
28546;DHT22;15749;49.606;8.738;2022-09-09T01:24:17;21.30;99.90
28546;DHT22;15749;49.606;8.738;2022-09-09T01:27:35;21.30;99.90
28546;DHT22;15749;49.606;8.738;2022-09-09T01:30:24;21.40;99.90
28546;DHT22;15749;49.606;8.738;2022-09-09T01:33:16;21.40;99.90
28546;DHT22;15749;49.606;8.738;2022-09-09T01:36:08;21.40;99.90
28546;DHT22;15749;49.606;8.738;2022-09-09T01:39:04;21.40;99.90
28546;DHT22;15749;49.606;8.738;2022-09-09T01:41:53;21.40;99.90
28546;DHT22;15749;49.606;8.738;2022-09-09T01:44:45;21.40;99.90
28546;DHT22;15749;49.606;8.738;2022-09-09T01:47:33;21.40;99.90
28546;DHT22;15749;49.606;8.738;2022-09-09T01:50:33;21.40;99.90
28546;DHT22;15749;49.606;8.738;2022-09-09T01:53:22;21.40;99.90
28546;DHT22;15749;49.606;8.738;2022-09-09T01:56:19;21.40;99.90
28546;DHT22;15749;49.606;8.738;2022-09-09T01:59:28;21.40;99.90
28546;DHT22;15749;49.606;8.738;2022-09-09T02:02:32;21.40;99.90
28546;DHT22;15749;49.606;8.738;2022-09-09T02:05:35;21.30;99.90
28546;DHT22;15749;49.606;8.738;2022-09-09T02:08:40;21.40;99.90
28546;DHT22;15749;49.606;8.738;2022-09-09T02:11:30;21.30;99.90
28546;DHT22;15749;49.606;8.738;2022-09-09T02:14:28;21.30;99.90
28546;DHT22;15749;49.606;8.738;2022-09-09T02:17:22;21.30;99.90
28546;DHT22;15749;49.606;8.738;2022-09-09T02:20:20;21.30;99.90
28546;DHT22;15749;49.606;8.738;2022-09-09T02:23:16;21.30;99.90
28546;DHT22;15749;49.606;8.738;2022-09-09T02:26:09;21.30;99.90
28546;DHT22;15749;49.606;8.738;2022-09-09T02:29:02;21.30;99.90
28546;DHT22;15749;49.606;8.738;2022-09-09T02:31:51;21.30;99.90
28546;DHT22;15749;49.606;8.738;2022-09-09T02:34:48;21.30;99.90
28546;DHT22;15749;49.606;8.738;2022-09-09T02:37:42;21.30;99.90
28546;DHT22;15749;49.606;8.738;2022-09-09T02:40:33;21.30;99.90
28546;DHT22;15749;49.606;8.738;2022-09-09T02:43:22;21.30;99.90
28546;DHT22;15749;49.606;8.738;2022-09-09T02:46:24;21.30;99.90
28546;DHT22;15749;49.606;8.738;2022-09-09T02:49:25;21.30;99.90
28546;DHT22;15749;49.606;8.738;2022-09-09T02:52:20;21.30;99.90
28546;DHT22;15749;49.606;8.738;2022-09-09T02:55:16;21.20;99.90
28546;DHT22;15749;49.606;8.738;2022-09-09T02:58:11;21.30;99.90
28546;DHT22;15749;49.606;8.738;2022-09-09T03:01:10;21.30;99.90
28546;DHT22;15749;49.606;8.738;2022-09-09T03:03:59;21.30;99.90
28546;DHT22;15749;49.606;8.738;2022-09-09T03:06:48;21.30;99.90
28546;DHT22;15749;49.606;8.738;2022-09-09T03:09:39;21.30;99.90
28546;DHT22;15749;49.606;8.738;2022-09-09T03:12:28;21.30;99.90
28546;DHT22;15749;49.606;8.738;2022-09-09T03:15:17;21.30;99.90
28546;DHT22;15749;49.606;8.738;2022-09-09T03:18:05;21.30;99.90
28546;DHT22;15749;49.606;8.738;2022-09-09T03:20:53;21.30;99.90
28546;DHT22;15749;49.606;8.738;2022-09-09T03:23:41;21.30;99.90
28546;DHT22;15749;49.606;8.738;2022-09-09T03:26:31;21.30;99.90
28546;DHT22;15749;49.606;8.738;2022-09-09T03:29:20;21.30;99.90
28546;DHT22;15749;49.606;8.738;2022-09-09T03:32:12;21.30;99.90
28546;DHT22;15749;49.606;8.738;2022-09-09T03:35:04;21.40;99.90
28546;DHT22;15749;49.606;8.738;2022-09-09T03:37:53;21.40;99.90
28546;DHT22;15749;49.606;8.738;2022-09-09T03:40:48;21.40;99.90
28546;DHT22;15749;49.606;8.738;2022-09-09T03:43:37;21.40;99.90
28546;DHT22;15749;49.606;8.738;2022-09-09T03:46:27;21.40;99.90
28546;DHT22;15749;49.606;8.738;2022-09-09T03:49:15;21.40;99.90
28546;DHT22;15749;49.606;8.738;2022-09-09T03:52:03;21.50;99.90
28546;DHT22;15749;49.606;8.738;2022-09-09T03:54:51;21.50;99.90
28546;DHT22;15749;49.606;8.738;2022-09-09T03:57:40;21.50;99.90
28546;DHT22;15749;49.606;8.738;2022-09-09T04:00:28;21.50;99.90
28546;DHT22;15749;49.606;8.738;2022-09-09T04:03:18;21.50;99.90
28546;DHT22;15749;49.606;8.738;2022-09-09T04:06:13;21.50;99.90
28546;DHT22;15749;49.606;8.738;2022-09-09T04:09:04;21.60;99.90
28546;DHT22;15749;49.606;8.738;2022-09-09T04:11:53;21.60;99.90
28546;DHT22;15749;49.606;8.738;2022-09-09T04:14:41;21.60;99.90
28546;DHT22;15749;49.606;8.738;2022-09-09T04:17:29;21.60;99.90
28546;DHT22;15749;49.606;8.738;2022-09-09T04:20:20;21.60;99.90
28546;DHT22;15749;49.606;8.738;2022-09-09T04:23:08;21.60;99.90
28546;DHT22;15749;49.606;8.738;2022-09-09T04:25:57;21.60;99.90
28546;DHT22;15749;49.606;8.738;2022-09-09T04:29:02;21.60;99.90
28546;DHT22;15749;49.606;8.738;2022-09-09T04:31:51;21.60;99.90
28546;DHT22;15749;49.606;8.738;2022-09-09T04:34:39;21.60;99.90
28546;DHT22;15749;49.606;8.738;2022-09-09T04:37:29;21.60;99.90
28546;DHT22;15749;49.606;8.738;2022-09-09T04:40:18;21.60;99.90
28546;DHT22;15749;49.606;8.738;2022-09-09T04:43:08;21.60;99.90
28546;DHT22;15749;49.606;8.738;2022-09-09T04:46:00;21.50;99.90
28546;DHT22;15749;49.606;8.738;2022-09-09T04:48:49;21.50;99.90
28546;DHT22;15749;49.606;8.738;2022-09-09T04:51:37;21.50;99.90
28546;DHT22;15749;49.606;8.738;2022-09-09T04:54:26;21.40;99.90
28546;DHT22;15749;49.606;8.738;2022-09-09T04:57:14;21.40;99.90
28546;DHT22;15749;49.606;8.738;2022-09-09T05:00:06;21.40;99.90
28546;DHT22;15749;49.606;8.738;2022-09-09T05:02:57;21.40;99.90
28546;DHT22;15749;49.606;8.738;2022-09-09T05:05:45;21.40;99.90
28546;DHT22;15749;49.606;8.738;2022-09-09T05:08:33;21.40;99.90
28546;DHT22;15749;49.606;8.738;2022-09-09T05:11:24;21.40;99.90
28546;DHT22;15749;49.606;8.738;2022-09-09T05:14:17;21.40;99.90
28546;DHT22;15749;49.606;8.738;2022-09-09T05:17:05;21.40;99.90
28546;DHT22;15749;49.606;8.738;2022-09-09T05:19:55;21.40;99.90
28546;DHT22;15749;49.606;8.738;2022-09-09T05:22:43;21.40;99.90
28546;DHT22;15749;49.606;8.738;2022-09-09T05:25:30;21.40;99.90
28546;DHT22;15749;49.606;8.738;2022-09-09T05:28:19;21.40;99.90
28546;DHT22;15749;49.606;8.738;2022-09-09T05:31:08;21.40;99.90
28546;DHT22;15749;49.606;8.738;2022-09-09T05:33:59;21.30;99.90
28546;DHT22;15749;49.606;8.738;2022-09-09T05:36:46;21.30;99.90
28546;DHT22;15749;49.606;8.738;2022-09-09T05:39:34;21.30;99.90
28546;DHT22;15749;49.606;8.738;2022-09-09T05:42:24;21.30;99.90
28546;DHT22;15749;49.606;8.738;2022-09-09T05:45:13;21.30;99.90
28546;DHT22;15749;49.606;8.738;2022-09-09T05:48:01;21.20;99.90
28546;DHT22;15749;49.606;8.738;2022-09-09T05:50:53;21.30;99.90
28546;DHT22;15749;49.606;8.738;2022-09-09T05:53:41;21.30;99.90
28546;DHT22;15749;49.606;8.738;2022-09-09T05:56:30;21.30;99.90
28546;DHT22;15749;49.606;8.738;2022-09-09T05:59:19;21.30;99.90
28546;DHT22;15749;49.606;8.738;2022-09-09T06:02:09;21.40;99.90
28546;DHT22;15749;49.606;8.738;2022-09-09T06:04:58;21.40;99.90
28546;DHT22;15749;49.606;8.738;2022-09-09T06:07:46;21.40;99.90
28546;DHT22;15749;49.606;8.738;2022-09-09T06:10:34;21.40;99.90
28546;DHT22;15749;49.606;8.738;2022-09-09T06:13:22;21.40;99.90
28546;DHT22;15749;49.606;8.738;2022-09-09T06:16:10;21.40;99.90
28546;DHT22;15749;49.606;8.738;2022-09-09T06:19:02;21.40;99.90
28546;DHT22;15749;49.606;8.738;2022-09-09T06:21:50;21.40;99.90
28546;DHT22;15749;49.606;8.738;2022-09-09T06:24:38;21.40;99.90
28546;DHT22;15749;49.606;8.738;2022-09-09T06:27:27;21.40;99.90
28546;DHT22;15749;49.606;8.738;2022-09-09T06:30:15;21.40;99.90
28546;DHT22;15749;49.606;8.738;2022-09-09T06:33:03;21.50;99.90
28546;DHT22;15749;49.606;8.738;2022-09-09T06:35:53;21.40;99.90
28546;DHT22;15749;49.606;8.738;2022-09-09T06:38:44;21.50;99.90
28546;DHT22;15749;49.606;8.738;2022-09-09T06:41:33;21.50;99.90
28546;DHT22;15749;49.606;8.738;2022-09-09T06:44:21;21.50;99.90
28546;DHT22;15749;49.606;8.738;2022-09-09T06:47:09;21.50;99.90
28546;DHT22;15749;49.606;8.738;2022-09-09T06:49:58;21.50;99.90
28546;DHT22;15749;49.606;8.738;2022-09-09T06:52:48;21.50;99.90
28546;DHT22;15749;49.606;8.738;2022-09-09T06:55:37;21.50;99.90
28546;DHT22;15749;49.606;8.738;2022-09-09T06:58:27;21.50;99.90
28546;DHT22;15749;49.606;8.738;2022-09-09T07:01:17;21.60;99.90
28546;DHT22;15749;49.606;8.738;2022-09-09T07:04:06;21.60;99.90
28546;DHT22;15749;49.606;8.738;2022-09-09T07:06:55;21.70;99.90
28546;DHT22;15749;49.606;8.738;2022-09-09T07:09:45;21.70;99.90
28546;DHT22;15749;49.606;8.738;2022-09-09T07:12:33;21.80;99.90
28546;DHT22;15749;49.606;8.738;2022-09-09T07:15:21;21.80;99.90
28546;DHT22;15749;49.606;8.738;2022-09-09T07:18:09;21.90;99.90
28546;DHT22;15749;49.606;8.738;2022-09-09T07:20:57;21.90;99.90
28546;DHT22;15749;49.606;8.738;2022-09-09T07:23:45;22.00;99.90
28546;DHT22;15749;49.606;8.738;2022-09-09T07:26:34;22.00;99.90
28546;DHT22;15749;49.606;8.738;2022-09-09T07:29:21;22.10;99.90
28546;DHT22;15749;49.606;8.738;2022-09-09T07:32:09;22.10;99.90
28546;DHT22;15749;49.606;8.738;2022-09-09T07:34:58;22.10;99.90
28546;DHT22;15749;49.606;8.738;2022-09-09T07:37:46;22.20;99.90
28546;DHT22;15749;49.606;8.738;2022-09-09T07:40:38;22.20;99.90
28546;DHT22;15749;49.606;8.738;2022-09-09T07:43:27;22.20;99.90
28546;DHT22;15749;49.606;8.738;2022-09-09T07:46:16;22.30;99.90
28546;DHT22;15749;49.606;8.738;2022-09-09T07:49:06;22.30;99.90
28546;DHT22;15749;49.606;8.738;2022-09-09T07:51:54;22.40;99.90
28546;DHT22;15749;49.606;8.738;2022-09-09T07:54:42;22.40;99.90
28546;DHT22;15749;49.606;8.738;2022-09-09T07:57:32;22.40;99.90
28546;DHT22;15749;49.606;8.738;2022-09-09T08:00:22;22.40;99.90
28546;DHT22;15749;49.606;8.738;2022-09-09T08:03:13;22.50;99.90
28546;DHT22;15749;49.606;8.738;2022-09-09T08:06:02;22.40;99.90
28546;DHT22;15749;49.606;8.738;2022-09-09T08:08:51;22.40;99.90
28546;DHT22;15749;49.606;8.738;2022-09-09T08:11:40;22.40;99.90
28546;DHT22;15749;49.606;8.738;2022-09-09T08:14:28;22.40;99.90
28546;DHT22;15749;49.606;8.738;2022-09-09T08:17:18;22.40;99.90
28546;DHT22;15749;49.606;8.738;2022-09-09T08:20:06;22.50;99.90
28546;DHT22;15749;49.606;8.738;2022-09-09T08:22:55;22.50;99.90
28546;DHT22;15749;49.606;8.738;2022-09-09T08:25:43;22.50;99.90
28546;DHT22;15749;49.606;8.738;2022-09-09T08:28:32;22.60;99.90
28546;DHT22;15749;49.606;8.738;2022-09-09T08:31:21;22.60;99.90
28546;DHT22;15749;49.606;8.738;2022-09-09T08:34:16;22.70;99.90
28546;DHT22;15749;49.606;8.738;2022-09-09T08:37:08;22.70;99.90
28546;DHT22;15749;49.606;8.738;2022-09-09T08:39:58;22.70;99.90
28546;DHT22;15749;49.606;8.738;2022-09-09T08:42:49;22.70;99.90
28546;DHT22;15749;49.606;8.738;2022-09-09T08:45:49;22.70;99.90
28546;DHT22;15749;49.606;8.738;2022-09-09T08:48:47;22.70;99.90
28546;DHT22;15749;49.606;8.738;2022-09-09T08:51:41;22.70;99.90
28546;DHT22;15749;49.606;8.738;2022-09-09T08:54:34;22.70;99.90
28546;DHT22;15749;49.606;8.738;2022-09-09T08:57:38;22.70;99.90
28546;DHT22;15749;49.606;8.738;2022-09-09T09:00:29;22.70;99.90
28546;DHT22;15749;49.606;8.738;2022-09-09T09:03:28;22.70;99.90
28546;DHT22;15749;49.606;8.738;2022-09-09T09:06:30;22.70;99.90
28546;DHT22;15749;49.606;8.738;2022-09-09T09:09:36;22.80;99.90
28546;DHT22;15749;49.606;8.738;2022-09-09T09:12:31;22.80;99.90
28546;DHT22;15749;49.606;8.738;2022-09-09T09:15:25;22.80;99.90
28546;DHT22;15749;49.606;8.738;2022-09-09T09:18:18;22.80;99.90
28546;DHT22;15749;49.606;8.738;2022-09-09T09:21:10;22.80;99.90
28546;DHT22;15749;49.606;8.738;2022-09-09T09:24:02;22.90;99.90
28546;DHT22;15749;49.606;8.738;2022-09-09T09:26:55;22.90;99.90
28546;DHT22;15749;49.606;8.738;2022-09-09T09:29:44;22.90;99.90
28546;DHT22;15749;49.606;8.738;2022-09-09T09:32:55;22.90;99.90
28546;DHT22;15749;49.606;8.738;2022-09-09T09:35:48;22.90;99.90
28546;DHT22;15749;49.606;8.738;2022-09-09T09:38:38;23.00;99.90
28546;DHT22;15749;49.606;8.738;2022-09-09T09:41:48;23.00;99.90
28546;DHT22;15749;49.606;8.738;2022-09-09T09:44:37;23.10;99.90
28546;DHT22;15749;49.606;8.738;2022-09-09T09:47:31;23.10;99.90
28546;DHT22;15749;49.606;8.738;2022-09-09T09:50:30;23.10;99.90
28546;DHT22;15749;49.606;8.738;2022-09-09T09:53:24;23.20;99.90
28546;DHT22;15749;49.606;8.738;2022-09-09T09:56:14;23.20;99.90
28546;DHT22;15749;49.606;8.738;2022-09-09T09:59:02;23.30;99.90
28546;DHT22;15749;49.606;8.738;2022-09-09T10:02:19;23.30;99.90
28546;DHT22;15749;49.606;8.738;2022-09-09T10:05:18;23.40;99.90
28546;DHT22;15749;49.606;8.738;2022-09-09T10:08:17;23.40;99.90
28546;DHT22;15749;49.606;8.738;2022-09-09T10:11:17;23.50;99.90
28546;DHT22;15749;49.606;8.738;2022-09-09T10:14:19;23.50;99.90
28546;DHT22;15749;49.606;8.738;2022-09-09T10:17:15;23.50;99.90
28546;DHT22;15749;49.606;8.738;2022-09-09T10:20:19;23.40;99.90
28546;DHT22;15749;49.606;8.738;2022-09-09T10:23:26;23.50;99.90
28546;DHT22;15749;49.606;8.738;2022-09-09T10:26:32;23.40;99.90
28546;DHT22;15749;49.606;8.738;2022-09-09T10:29:34;23.40;99.90
28546;DHT22;15749;49.606;8.738;2022-09-09T10:32:37;23.30;99.90
28546;DHT22;15749;49.606;8.738;2022-09-09T10:35:35;23.30;99.90
28546;DHT22;15749;49.606;8.738;2022-09-09T10:38:30;23.20;99.90
28546;DHT22;15749;49.606;8.738;2022-09-09T10:41:42;23.10;99.90
28546;DHT22;15749;49.606;8.738;2022-09-09T10:44:52;23.10;99.90
28546;DHT22;15749;49.606;8.738;2022-09-09T10:47:59;23.00;99.90
28546;DHT22;15749;49.606;8.738;2022-09-09T10:51:18;23.00;99.90
28546;DHT22;15749;49.606;8.738;2022-09-09T10:54:28;23.00;99.90
28546;DHT22;15749;49.606;8.738;2022-09-09T10:57:27;23.00;99.90
28546;DHT22;15749;49.606;8.738;2022-09-09T11:00:20;23.10;99.90
28546;DHT22;15749;49.606;8.738;2022-09-09T11:03:17;23.10;99.90
28546;DHT22;15749;49.606;8.738;2022-09-09T11:06:12;23.20;99.90
28546;DHT22;15749;49.606;8.738;2022-09-09T11:09:02;23.30;99.90
28546;DHT22;15749;49.606;8.738;2022-09-09T11:11:55;23.30;99.90
28546;DHT22;15749;49.606;8.738;2022-09-09T11:14:45;23.40;99.90
28546;DHT22;15749;49.606;8.738;2022-09-09T11:17:40;23.40;99.90
28546;DHT22;15749;49.606;8.738;2022-09-09T11:20:31;23.50;99.90
28546;DHT22;15749;49.606;8.738;2022-09-09T11:23:22;23.60;99.90
28546;DHT22;15749;49.606;8.738;2022-09-09T11:26:18;23.60;99.90
28546;DHT22;15749;49.606;8.738;2022-09-09T11:29:37;23.70;99.90
28546;DHT22;15749;49.606;8.738;2022-09-09T11:33:18;23.80;99.90
28546;DHT22;15749;49.606;8.738;2022-09-09T11:36:46;23.80;99.90
28546;DHT22;15749;49.606;8.738;2022-09-09T11:40:17;23.90;99.90
28546;DHT22;15749;49.606;8.738;2022-09-09T11:43:11;24.00;99.90
28546;DHT22;15749;49.606;8.738;2022-09-09T11:46:01;24.10;99.90
28546;DHT22;15749;49.606;8.738;2022-09-09T11:49:00;24.10;99.90
28546;DHT22;15749;49.606;8.738;2022-09-09T11:51:50;24.20;99.90
28546;DHT22;15749;49.606;8.738;2022-09-09T11:54:46;24.20;99.90
28546;DHT22;15749;49.606;8.738;2022-09-09T11:57:36;24.30;99.90
28546;DHT22;15749;49.606;8.738;2022-09-09T12:00:42;24.30;99.90
28546;DHT22;15749;49.606;8.738;2022-09-09T12:03:42;24.30;99.90
28546;DHT22;15749;49.606;8.738;2022-09-09T12:06:33;24.40;99.90
28546;DHT22;15749;49.606;8.738;2022-09-09T12:09:44;24.40;99.90
28546;DHT22;15749;49.606;8.738;2022-09-09T12:12:35;24.50;99.90
28546;DHT22;15749;49.606;8.738;2022-09-09T12:15:29;24.50;99.90
28546;DHT22;15749;49.606;8.738;2022-09-09T12:18:22;24.50;99.90
28546;DHT22;15749;49.606;8.738;2022-09-09T12:21:18;24.60;99.90
28546;DHT22;15749;49.606;8.738;2022-09-09T12:24:16;24.60;99.90
28546;DHT22;15749;49.606;8.738;2022-09-09T12:27:15;24.60;99.90
28546;DHT22;15749;49.606;8.738;2022-09-09T12:30:09;24.60;99.90
28546;DHT22;15749;49.606;8.738;2022-09-09T12:33:02;24.50;99.90
28546;DHT22;15749;49.606;8.738;2022-09-09T12:35:57;24.50;99.90
28546;DHT22;15749;49.606;8.738;2022-09-09T12:38:45;24.50;99.90
28546;DHT22;15749;49.606;8.738;2022-09-09T12:41:33;24.50;99.90
28546;DHT22;15749;49.606;8.738;2022-09-09T12:44:23;24.50;99.90
28546;DHT22;15749;49.606;8.738;2022-09-09T12:47:13;24.40;99.90
28546;DHT22;15749;49.606;8.738;2022-09-09T12:50:01;24.40;99.90
28546;DHT22;15749;49.606;8.738;2022-09-09T12:52:50;24.40;99.90
28546;DHT22;15749;49.606;8.738;2022-09-09T12:55:49;24.30;99.90
28546;DHT22;15749;49.606;8.738;2022-09-09T12:58:38;24.30;99.90
28546;DHT22;15749;49.606;8.738;2022-09-09T13:01:29;24.30;99.90
28546;DHT22;15749;49.606;8.738;2022-09-09T13:04:20;24.20;99.90
28546;DHT22;15749;49.606;8.738;2022-09-09T13:07:09;24.20;99.90
28546;DHT22;15749;49.606;8.738;2022-09-09T13:09:58;24.10;99.90
28546;DHT22;15749;49.606;8.738;2022-09-09T13:12:45;24.00;99.90
28546;DHT22;15749;49.606;8.738;2022-09-09T13:15:34;23.90;99.90
28546;DHT22;15749;49.606;8.738;2022-09-09T13:18:24;23.80;99.90
28546;DHT22;15749;49.606;8.738;2022-09-09T13:21:14;23.80;99.90
28546;DHT22;15749;49.606;8.738;2022-09-09T13:24:02;23.70;99.90
28546;DHT22;15749;49.606;8.738;2022-09-09T13:26:55;23.70;99.90
28546;DHT22;15749;49.606;8.738;2022-09-09T13:29:51;23.60;99.90
28546;DHT22;15749;49.606;8.738;2022-09-09T13:32:41;23.60;99.90
28546;DHT22;15749;49.606;8.738;2022-09-09T13:35:31;23.60;99.90
28546;DHT22;15749;49.606;8.738;2022-09-09T13:38:19;23.50;99.90
28546;DHT22;15749;49.606;8.738;2022-09-09T13:41:19;23.50;99.90
28546;DHT22;15749;49.606;8.738;2022-09-09T13:44:18;23.50;99.90
28546;DHT22;15749;49.606;8.738;2022-09-09T13:47:19;23.50;99.90
28546;DHT22;15749;49.606;8.738;2022-09-09T13:50:22;23.50;99.90
28546;DHT22;15749;49.606;8.738;2022-09-09T13:53:12;23.40;99.90
28546;DHT22;15749;49.606;8.738;2022-09-09T13:56:00;23.40;99.90
28546;DHT22;15749;49.606;8.738;2022-09-09T13:58:48;23.40;99.90
28546;DHT22;15749;49.606;8.738;2022-09-09T14:01:35;23.40;99.90
28546;DHT22;15749;49.606;8.738;2022-09-09T14:04:23;23.30;99.90
28546;DHT22;15749;49.606;8.738;2022-09-09T14:07:12;23.30;99.90
28546;DHT22;15749;49.606;8.738;2022-09-09T14:10:03;23.20;99.90
28546;DHT22;15749;49.606;8.738;2022-09-09T14:12:51;23.20;99.90
28546;DHT22;15749;49.606;8.738;2022-09-09T14:15:38;23.10;99.90
28546;DHT22;15749;49.606;8.738;2022-09-09T14:18:25;23.10;99.90
28546;DHT22;15749;49.606;8.738;2022-09-09T14:21:13;23.10;99.90
28546;DHT22;15749;49.606;8.738;2022-09-09T14:24:02;23.10;99.90
28546;DHT22;15749;49.606;8.738;2022-09-09T14:26:50;23.10;99.90
28546;DHT22;15749;49.606;8.738;2022-09-09T14:29:38;23.10;99.90
28546;DHT22;15749;49.606;8.738;2022-09-09T14:32:26;23.10;99.90
28546;DHT22;15749;49.606;8.738;2022-09-09T14:35:14;23.10;99.90
28546;DHT22;15749;49.606;8.738;2022-09-09T14:38:03;23.10;99.90
28546;DHT22;15749;49.606;8.738;2022-09-09T14:40:51;23.10;99.90
28546;DHT22;15749;49.606;8.738;2022-09-09T14:43:39;23.10;99.90
28546;DHT22;15749;49.606;8.738;2022-09-09T14:46:27;23.10;99.90
28546;DHT22;15749;49.606;8.738;2022-09-09T14:49:15;23.10;99.90
28546;DHT22;15749;49.606;8.738;2022-09-09T14:52:03;23.10;99.90
28546;DHT22;15749;49.606;8.738;2022-09-09T14:54:52;23.10;99.90
28546;DHT22;15749;49.606;8.738;2022-09-09T14:57:39;23.10;99.90
28546;DHT22;15749;49.606;8.738;2022-09-09T15:00:28;23.10;99.90
28546;DHT22;15749;49.606;8.738;2022-09-09T15:03:16;23.10;99.90
28546;DHT22;15749;49.606;8.738;2022-09-09T15:06:07;23.10;99.90
28546;DHT22;15749;49.606;8.738;2022-09-09T15:08:56;23.10;99.90
28546;DHT22;15749;49.606;8.738;2022-09-09T15:11:44;23.10;99.90
28546;DHT22;15749;49.606;8.738;2022-09-09T15:14:32;23.10;99.90
28546;DHT22;15749;49.606;8.738;2022-09-09T15:17:21;23.10;99.90
28546;DHT22;15749;49.606;8.738;2022-09-09T15:20:12;23.10;99.90
28546;DHT22;15749;49.606;8.738;2022-09-09T15:23:03;23.20;99.90
28546;DHT22;15749;49.606;8.738;2022-09-09T15:25:52;23.20;99.90
28546;DHT22;15749;49.606;8.738;2022-09-09T15:28:42;23.20;99.90
28546;DHT22;15749;49.606;8.738;2022-09-09T15:31:31;23.20;99.90
28546;DHT22;15749;49.606;8.738;2022-09-09T15:34:21;23.20;99.90
28546;DHT22;15749;49.606;8.738;2022-09-09T15:37:10;23.20;99.90
28546;DHT22;15749;49.606;8.738;2022-09-09T15:39:59;23.20;99.90
28546;DHT22;15749;49.606;8.738;2022-09-09T15:42:46;23.20;99.90
28546;DHT22;15749;49.606;8.738;2022-09-09T15:45:35;23.20;99.90
28546;DHT22;15749;49.606;8.738;2022-09-09T15:48:30;23.20;99.90
28546;DHT22;15749;49.606;8.738;2022-09-09T15:51:21;23.20;99.90
28546;DHT22;15749;49.606;8.738;2022-09-09T15:54:27;23.20;99.90
28546;DHT22;15749;49.606;8.738;2022-09-09T15:57:14;23.10;99.90
28546;DHT22;15749;49.606;8.738;2022-09-09T16:00:03;23.10;99.90
28546;DHT22;15749;49.606;8.738;2022-09-09T16:02:52;23.00;99.90
28546;DHT22;15749;49.606;8.738;2022-09-09T16:05:40;23.00;99.90
28546;DHT22;15749;49.606;8.738;2022-09-09T16:08:32;22.90;99.90
28546;DHT22;15749;49.606;8.738;2022-09-09T16:11:22;22.90;99.90
28546;DHT22;15749;49.606;8.738;2022-09-09T16:14:10;22.80;99.90
28546;DHT22;15749;49.606;8.738;2022-09-09T16:16:57;22.70;99.90
28546;DHT22;15749;49.606;8.738;2022-09-09T16:19:44;22.60;99.90
28546;DHT22;15749;49.606;8.738;2022-09-09T16:22:32;22.60;99.90
28546;DHT22;15749;49.606;8.738;2022-09-09T16:25:21;22.50;99.90
28546;DHT22;15749;49.606;8.738;2022-09-09T16:28:09;22.50;99.90
28546;DHT22;15749;49.606;8.738;2022-09-09T16:30:56;22.50;99.90
28546;DHT22;15749;49.606;8.738;2022-09-09T16:33:45;22.50;99.90
28546;DHT22;15749;49.606;8.738;2022-09-09T16:36:35;22.50;99.90
28546;DHT22;15749;49.606;8.738;2022-09-09T16:39:24;22.50;99.90
28546;DHT22;15749;49.606;8.738;2022-09-09T16:42:13;22.50;99.90
28546;DHT22;15749;49.606;8.738;2022-09-09T16:45:03;22.40;99.90
28546;DHT22;15749;49.606;8.738;2022-09-09T16:47:52;22.40;99.90
28546;DHT22;15749;49.606;8.738;2022-09-09T16:50:40;22.40;99.90
28546;DHT22;15749;49.606;8.738;2022-09-09T16:53:28;22.40;99.90
28546;DHT22;15749;49.606;8.738;2022-09-09T16:56:17;22.40;99.90
28546;DHT22;15749;49.606;8.738;2022-09-09T16:59:09;22.40;99.90
28546;DHT22;15749;49.606;8.738;2022-09-09T17:01:57;22.40;99.90
28546;DHT22;15749;49.606;8.738;2022-09-09T17:04:46;22.40;99.90
28546;DHT22;15749;49.606;8.738;2022-09-09T17:07:34;22.40;99.90
28546;DHT22;15749;49.606;8.738;2022-09-09T17:10:22;22.50;99.90
28546;DHT22;15749;49.606;8.738;2022-09-09T17:13:09;22.40;99.90
28546;DHT22;15749;49.606;8.738;2022-09-09T17:15:58;22.40;99.90
28546;DHT22;15749;49.606;8.738;2022-09-09T17:18:51;22.40;99.90
28546;DHT22;15749;49.606;8.738;2022-09-09T17:21:40;22.40;99.90
28546;DHT22;15749;49.606;8.738;2022-09-09T17:24:48;22.40;99.90
28546;DHT22;15749;49.606;8.738;2022-09-09T17:27:35;22.40;99.90
28546;DHT22;15749;49.606;8.738;2022-09-09T17:30:23;22.40;99.90
28546;DHT22;15749;49.606;8.738;2022-09-09T17:33:12;22.40;99.90
28546;DHT22;15749;49.606;8.738;2022-09-09T17:36:02;22.40;99.90
28546;DHT22;15749;49.606;8.738;2022-09-09T17:39:00;22.40;99.90
28546;DHT22;15749;49.606;8.738;2022-09-09T17:41:48;22.40;99.90
28546;DHT22;15749;49.606;8.738;2022-09-09T17:44:35;22.40;99.90
28546;DHT22;15749;49.606;8.738;2022-09-09T17:47:24;22.30;99.90
28546;DHT22;15749;49.606;8.738;2022-09-09T17:50:14;22.30;99.90
28546;DHT22;15749;49.606;8.738;2022-09-09T17:53:01;22.30;99.90
28546;DHT22;15749;49.606;8.738;2022-09-09T17:55:49;22.30;99.90
28546;DHT22;15749;49.606;8.738;2022-09-09T17:58:39;22.30;99.90
28546;DHT22;15749;49.606;8.738;2022-09-09T18:01:27;22.30;99.90
28546;DHT22;15749;49.606;8.738;2022-09-09T18:04:17;22.30;99.90
28546;DHT22;15749;49.606;8.738;2022-09-09T18:07:07;22.30;99.90
28546;DHT22;15749;49.606;8.738;2022-09-09T18:09:54;22.20;99.90
28546;DHT22;15749;49.606;8.738;2022-09-09T18:12:42;22.20;99.90